Date,TemperatureHighF,TemperatureAvgF,TemperatureLowF,DewpointHighF,DewpointAvgF,DewpointLowF,HumidityHigh,HumidityAvg,HumidityLow,PressureMaxIn,PressureMinIn,WindSpeedMaxMPH,WindSpeedAvgMPH,GustSpeedMaxMPH,PrecipitationSumIn
2013-4-1,62,51,44,51,46,43,96,83,56,30.27,30.16,6,2,6,0.01
2013-4-2,66,57,43,48,45,39,85,65,46,30.27,30.19,4,1,6,0.00
2013-4-3,72,58,48,56,49,43,87,72,44,30.25,30.08,5,1,7,0.00
2013-4-4,56,52,46,54,50,43,96,92,77,30.23,30.05,13,1,21,0.55
2013-4-5,61,53,48,54,48,46,97,86,61,30.26,30.21,1,0,9,0.02
2013-4-6,63,52,47,51,48,46,95,85,57,30.29,30.21,3,0,6,0.00
2013-4-7,65,54,44,51,48,42,95,81,55,30.23,29.86,4,1,10,0.07
2013-4-8,61,50,40,44,35,23,95,63,26,30.11,29.81,8,2,18,0.32
2013-4-9,72,55,41,38,30,19,58,40,14,30.22,30.10,7,2,18,0.00
2013-4-10,77,65,54,51,37,23,60,36,27,30.27,30.04,5,1,13,0.00
2013-4-11,71,61,50,51,44,33,86,57,26,30.06,29.91,8,2,11,0.00
2013-4-12,75,63,52,49,38,31,57,40,23,29.97,29.89,8,2,11,0.00
2013-4-13,74,62,52,49,42,37,59,48,30,29.95,29.87,7,2,12,0.00
2013-4-14,67,57,48,43,36,24,71,47,22,29.95,29.84,3,0,10,0.00
2013-4-15,57,47,40,42,37,27,92,70,35,30.00,29.87,4,1,15,0.00
2013-4-16,62,48,38,35,24,13,83,44,16,30.25,30.00,7,2,17,0.00
2013-4-17,67,52,40,27,20,13,47,29,13,30.35,30.25,7,2,17,0.00
2013-4-18,70,58,45,39,27,15,52,31,22,30.37,30.29,7,2,12,0.00
2013-4-19,75,62,50,42,37,30,55,41,26,30.34,30.16,4,1,9,0.00
2013-4-20,75,64,53,44,38,29,61,41,25,30.19,30.07,7,2,11,0.00
2013-4-21,78,67,55,47,40,32,54,38,23,30.12,30.04,4,1,7,0.00
2013-4-22,82,69,58,51,40,26,53,37,22,30.05,29.93,7,2,14,0.00
2013-4-23,81,68,57,40,26,14,38,21,12,29.99,29.92,12,4,20,0.00
2013-4-24,85,70,56,42,28,18,49,24,9,29.94,29.84,10,4,19,0.00
2013-4-25,75,62,47,51,43,33,74,52,31,30.16,29.91,3,0,13,0.00
2013-4-26,80,66,53,53,46,39,75,51,30,30.27,30.15,6,1,10,0.00
2013-4-27,85,71,59,54,48,41,65,45,28,30.27,30.11,3,0,9,0.00
2013-4-28,86,72,60,52,43,31,50,36,24,30.11,29.95,5,2,10,0.00
2013-4-29,84,73,62,55,46,40,61,41,23,29.95,29.81,4,1,9,0.00
2013-4-30,79,69,57,52,38,8,63,36,10,29.93,29.79,11,2,16,0.00